sensor_id;sensor_type;location;lat;lon;timestamp;temperature;humidity
8105;DHT22;4095;48.942;9.104;2022-08-03T00:01:42;22.40;87.80
8105;DHT22;4095;48.942;9.104;2022-08-03T00:04:09;22.30;88.20
8105;DHT22;4095;48.942;9.104;2022-08-03T00:06:35;22.30;87.90
8105;DHT22;4095;48.942;9.104;2022-08-03T00:09:02;22.30;88.20
8105;DHT22;4095;48.942;9.104;2022-08-03T00:11:27;22.20;88.30
8105;DHT22;4095;48.942;9.104;2022-08-03T00:13:53;22.20;87.80
8105;DHT22;4095;48.942;9.104;2022-08-03T00:16:19;22.20;87.80
8105;DHT22;4095;48.942;9.104;2022-08-03T00:18:44;22.10;87.40
8105;DHT22;4095;48.942;9.104;2022-08-03T00:21:10;22.10;87.80
8105;DHT22;4095;48.942;9.104;2022-08-03T00:23:37;22.00;87.60
8105;DHT22;4095;48.942;9.104;2022-08-03T00:26:02;22.00;87.80
8105;DHT22;4095;48.942;9.104;2022-08-03T00:28:28;22.00;87.60
8105;DHT22;4095;48.942;9.104;2022-08-03T00:30:55;21.90;87.90
8105;DHT22;4095;48.942;9.104;2022-08-03T00:33:21;21.90;88.10
8105;DHT22;4095;48.942;9.104;2022-08-03T00:35:47;21.90;88.10
8105;DHT22;4095;48.942;9.104;2022-08-03T00:38:12;21.80;88.30
8105;DHT22;4095;48.942;9.104;2022-08-03T00:40:38;21.80;88.40
8105;DHT22;4095;48.942;9.104;2022-08-03T00:43:05;21.80;88.70
8105;DHT22;4095;48.942;9.104;2022-08-03T00:45:36;21.80;89.10
8105;DHT22;4095;48.942;9.104;2022-08-03T00:48:04;21.80;89.40
8105;DHT22;4095;48.942;9.104;2022-08-03T00:50:35;21.80;89.50
8105;DHT22;4095;48.942;9.104;2022-08-03T00:53:02;21.70;89.90
8105;DHT22;4095;48.942;9.104;2022-08-03T00:55:29;21.80;89.80
8105;DHT22;4095;48.942;9.104;2022-08-03T00:57:56;21.70;89.40
8105;DHT22;4095;48.942;9.104;2022-08-03T01:00:23;21.70;89.80
8105;DHT22;4095;48.942;9.104;2022-08-03T01:02:50;21.70;89.80
8105;DHT22;4095;48.942;9.104;2022-08-03T01:05:18;21.70;89.90
8105;DHT22;4095;48.942;9.104;2022-08-03T01:08:04;21.60;90.00
8105;DHT22;4095;48.942;9.104;2022-08-03T01:18:35;21.50;90.30
8105;DHT22;4095;48.942;9.104;2022-08-03T01:21:05;21.40;90.20
8105;DHT22;4095;48.942;9.104;2022-08-03T01:26:47;21.40;90.60
8105;DHT22;4095;48.942;9.104;2022-08-03T01:32:09;21.50;90.70
8105;DHT22;4095;48.942;9.104;2022-08-03T01:34:40;21.40;90.70
8105;DHT22;4095;48.942;9.104;2022-08-03T01:37:08;21.40;90.80
8105;DHT22;4095;48.942;9.104;2022-08-03T01:39:36;21.40;90.80
8105;DHT22;4095;48.942;9.104;2022-08-03T01:42:05;21.40;91.10
8105;DHT22;4095;48.942;9.104;2022-08-03T01:44:36;21.40;91.20
8105;DHT22;4095;48.942;9.104;2022-08-03T01:47:03;21.30;91.10
8105;DHT22;4095;48.942;9.104;2022-08-03T01:49:34;21.30;91.10
8105;DHT22;4095;48.942;9.104;2022-08-03T01:52:03;21.40;91.20
8105;DHT22;4095;48.942;9.104;2022-08-03T01:54:31;21.40;91.20
8105;DHT22;4095;48.942;9.104;2022-08-03T01:56:58;21.40;91.00
8105;DHT22;4095;48.942;9.104;2022-08-03T01:59:25;21.40;90.80
8105;DHT22;4095;48.942;9.104;2022-08-03T02:01:52;21.30;90.90
8105;DHT22;4095;48.942;9.104;2022-08-03T02:04:19;21.30;91.10
8105;DHT22;4095;48.942;9.104;2022-08-03T02:06:47;21.30;91.10
8105;DHT22;4095;48.942;9.104;2022-08-03T02:09:14;21.20;91.10
8105;DHT22;4095;48.942;9.104;2022-08-03T02:11:41;21.20;91.10
8105;DHT22;4095;48.942;9.104;2022-08-03T02:14:08;21.20;91.10
8105;DHT22;4095;48.942;9.104;2022-08-03T02:16:35;21.20;91.10
8105;DHT22;4095;48.942;9.104;2022-08-03T02:19:04;21.10;91.20
8105;DHT22;4095;48.942;9.104;2022-08-03T02:21:34;21.10;91.40
8105;DHT22;4095;48.942;9.104;2022-08-03T02:24:01;21.10;91.30
8105;DHT22;4095;48.942;9.104;2022-08-03T02:26:29;21.10;91.60
8105;DHT22;4095;48.942;9.104;2022-08-03T02:28:56;21.10;91.40
8105;DHT22;4095;48.942;9.104;2022-08-03T02:31:26;21.00;91.40
8105;DHT22;4095;48.942;9.104;2022-08-03T02:33:56;21.00;91.60
8105;DHT22;4095;48.942;9.104;2022-08-03T02:36:27;21.00;91.70
8105;DHT22;4095;48.942;9.104;2022-08-03T02:38:56;20.90;91.60
8105;DHT22;4095;48.942;9.104;2022-08-03T02:41:28;20.90;91.60
8105;DHT22;4095;48.942;9.104;2022-08-03T02:43:56;20.90;91.80
8105;DHT22;4095;48.942;9.104;2022-08-03T02:46:26;20.90;91.90
8105;DHT22;4095;48.942;9.104;2022-08-03T02:48:53;20.90;91.80
8105;DHT22;4095;48.942;9.104;2022-08-03T02:51:21;20.80;91.90
8105;DHT22;4095;48.942;9.104;2022-08-03T02:53:47;20.90;92.00
8105;DHT22;4095;48.942;9.104;2022-08-03T02:56:15;20.80;91.90
8105;DHT22;4095;48.942;9.104;2022-08-03T02:58:42;20.80;91.90
8105;DHT22;4095;48.942;9.104;2022-08-03T03:01:10;20.70;92.10
8105;DHT22;4095;48.942;9.104;2022-08-03T03:03:37;20.70;92.20
8105;DHT22;4095;48.942;9.104;2022-08-03T03:06:05;20.70;92.00
8105;DHT22;4095;48.942;9.104;2022-08-03T03:08:31;20.70;92.10
8105;DHT22;4095;48.942;9.104;2022-08-03T03:10:59;20.70;92.30
8105;DHT22;4095;48.942;9.104;2022-08-03T03:13:27;20.60;92.30
8105;DHT22;4095;48.942;9.104;2022-08-03T03:15:53;20.70;92.40
8105;DHT22;4095;48.942;9.104;2022-08-03T03:18:20;20.70;92.20
8105;DHT22;4095;48.942;9.104;2022-08-03T03:20:47;20.60;92.40
8105;DHT22;4095;48.942;9.104;2022-08-03T03:23:14;20.60;92.40
8105;DHT22;4095;48.942;9.104;2022-08-03T03:25:41;20.60;92.40
8105;DHT22;4095;48.942;9.104;2022-08-03T03:28:09;20.60;92.60
8105;DHT22;4095;48.942;9.104;2022-08-03T03:30:35;20.60;92.40
8105;DHT22;4095;48.942;9.104;2022-08-03T03:33:00;20.60;92.40
8105;DHT22;4095;48.942;9.104;2022-08-03T03:35:27;20.50;92.30
8105;DHT22;4095;48.942;9.104;2022-08-03T03:37:53;20.50;92.50
8105;DHT22;4095;48.942;9.104;2022-08-03T03:40:18;20.50;92.50
8105;DHT22;4095;48.942;9.104;2022-08-03T03:42:44;20.40;92.60
8105;DHT22;4095;48.942;9.104;2022-08-03T03:45:11;20.40;92.60
8105;DHT22;4095;48.942;9.104;2022-08-03T03:47:37;20.40;92.60
8105;DHT22;4095;48.942;9.104;2022-08-03T03:50:04;20.40;92.70
8105;DHT22;4095;48.942;9.104;2022-08-03T03:52:31;20.40;92.90
8105;DHT22;4095;48.942;9.104;2022-08-03T03:54:56;20.40;93.00
8105;DHT22;4095;48.942;9.104;2022-08-03T03:57:22;20.40;93.00
8105;DHT22;4095;48.942;9.104;2022-08-03T03:59:48;20.30;93.00
8105;DHT22;4095;48.942;9.104;2022-08-03T04:02:13;20.30;93.20
8105;DHT22;4095;48.942;9.104;2022-08-03T04:04:39;20.30;93.30
8105;DHT22;4095;48.942;9.104;2022-08-03T04:08:03;20.30;93.30
8105;DHT22;4095;48.942;9.104;2022-08-03T04:13:53;20.30;93.20
8105;DHT22;4095;48.942;9.104;2022-08-03T04:16:26;20.30;93.40
8105;DHT22;4095;48.942;9.104;2022-08-03T04:18:56;20.30;93.50
8105;DHT22;4095;48.942;9.104;2022-08-03T04:21:23;20.30;93.50
8105;DHT22;4095;48.942;9.104;2022-08-03T04:23:52;20.30;93.80
8105;DHT22;4095;48.942;9.104;2022-08-03T04:26:21;20.30;93.40
8105;DHT22;4095;48.942;9.104;2022-08-03T04:28:48;20.30;93.50
8105;DHT22;4095;48.942;9.104;2022-08-03T04:31:17;20.30;93.60
8105;DHT22;4095;48.942;9.104;2022-08-03T04:33:45;20.30;93.60
8105;DHT22;4095;48.942;9.104;2022-08-03T04:36:14;20.40;93.70
8105;DHT22;4095;48.942;9.104;2022-08-03T04:39:03;20.40;93.70
8105;DHT22;4095;48.942;9.104;2022-08-03T04:41:30;20.40;93.80
8105;DHT22;4095;48.942;9.104;2022-08-03T04:43:58;20.50;93.90
8105;DHT22;4095;48.942;9.104;2022-08-03T04:46:27;20.50;94.10
8105;DHT22;4095;48.942;9.104;2022-08-03T04:48:54;20.60;93.80
8105;DHT22;4095;48.942;9.104;2022-08-03T04:51:20;20.60;93.80
8105;DHT22;4095;48.942;9.104;2022-08-03T04:53:47;20.70;93.90
8105;DHT22;4095;48.942;9.104;2022-08-03T04:56:12;20.80;93.80
8105;DHT22;4095;48.942;9.104;2022-08-03T04:58:38;20.80;93.90
8105;DHT22;4095;48.942;9.104;2022-08-03T05:01:03;20.80;93.80
8105;DHT22;4095;48.942;9.104;2022-08-03T05:03:29;20.80;93.80
8105;DHT22;4095;48.942;9.104;2022-08-03T05:05:56;20.90;93.60
8105;DHT22;4095;48.942;9.104;2022-08-03T05:08:21;20.90;93.60
8105;DHT22;4095;48.942;9.104;2022-08-03T05:10:47;21.00;93.60
8105;DHT22;4095;48.942;9.104;2022-08-03T05:13:13;21.00;93.70
8105;DHT22;4095;48.942;9.104;2022-08-03T05:15:39;21.00;93.60
8105;DHT22;4095;48.942;9.104;2022-08-03T05:18:04;21.10;93.90
8105;DHT22;4095;48.942;9.104;2022-08-03T05:20:30;21.10;93.90
8105;DHT22;4095;48.942;9.104;2022-08-03T05:22:56;21.20;94.00
8105;DHT22;4095;48.942;9.104;2022-08-03T05:25:22;21.30;93.90
8105;DHT22;4095;48.942;9.104;2022-08-03T05:27:48;21.40;93.90
8105;DHT22;4095;48.942;9.104;2022-08-03T05:30:15;21.40;93.70
8105;DHT22;4095;48.942;9.104;2022-08-03T05:32:40;21.40;93.70
8105;DHT22;4095;48.942;9.104;2022-08-03T05:35:06;21.50;93.50
8105;DHT22;4095;48.942;9.104;2022-08-03T05:37:32;21.60;93.60
8105;DHT22;4095;48.942;9.104;2022-08-03T05:39:58;21.60;93.80
8105;DHT22;4095;48.942;9.104;2022-08-03T05:42:23;21.70;93.80
8105;DHT22;4095;48.942;9.104;2022-08-03T05:44:49;21.80;93.50
8105;DHT22;4095;48.942;9.104;2022-08-03T05:47:15;21.90;93.60
8105;DHT22;4095;48.942;9.104;2022-08-03T05:49:40;22.00;93.30
8105;DHT22;4095;48.942;9.104;2022-08-03T05:52:06;22.10;93.40
8105;DHT22;4095;48.942;9.104;2022-08-03T05:54:32;22.20;93.60
8105;DHT22;4095;48.942;9.104;2022-08-03T05:56:57;22.30;93.40
8105;DHT22;4095;48.942;9.104;2022-08-03T05:59:23;22.30;93.30
8105;DHT22;4095;48.942;9.104;2022-08-03T06:01:50;22.50;93.30
8105;DHT22;4095;48.942;9.104;2022-08-03T06:04:16;22.50;93.20
8105;DHT22;4095;48.942;9.104;2022-08-03T06:06:41;22.60;93.00
8105;DHT22;4095;48.942;9.104;2022-08-03T06:09:07;22.70;92.90
8105;DHT22;4095;48.942;9.104;2022-08-03T06:11:35;22.70;92.80
8105;DHT22;4095;48.942;9.104;2022-08-03T06:14:00;22.70;92.90
8105;DHT22;4095;48.942;9.104;2022-08-03T06:16:26;22.80;93.00
8105;DHT22;4095;48.942;9.104;2022-08-03T06:18:51;22.90;92.60
8105;DHT22;4095;48.942;9.104;2022-08-03T06:21:17;23.00;92.80
8105;DHT22;4095;48.942;9.104;2022-08-03T06:23:44;23.10;92.90
8105;DHT22;4095;48.942;9.104;2022-08-03T06:26:10;23.20;92.90
8105;DHT22;4095;48.942;9.104;2022-08-03T06:28:35;23.30;92.70
8105;DHT22;4095;48.942;9.104;2022-08-03T06:31:02;23.40;92.60
8105;DHT22;4095;48.942;9.104;2022-08-03T06:33:28;23.50;92.70
8105;DHT22;4095;48.942;9.104;2022-08-03T06:35:54;23.60;92.60
8105;DHT22;4095;48.942;9.104;2022-08-03T06:38:19;23.70;92.60
8105;DHT22;4095;48.942;9.104;2022-08-03T06:40:45;23.70;92.60
8105;DHT22;4095;48.942;9.104;2022-08-03T06:43:10;23.80;92.50
8105;DHT22;4095;48.942;9.104;2022-08-03T06:45:38;23.90;92.60
8105;DHT22;4095;48.942;9.104;2022-08-03T06:48:04;24.10;92.30
8105;DHT22;4095;48.942;9.104;2022-08-03T06:50:31;24.10;92.00
8105;DHT22;4095;48.942;9.104;2022-08-03T06:52:57;24.20;92.30
8105;DHT22;4095;48.942;9.104;2022-08-03T06:55:23;24.30;92.10
8105;DHT22;4095;48.942;9.104;2022-08-03T06:57:48;24.30;91.90
8105;DHT22;4095;48.942;9.104;2022-08-03T07:00:14;24.50;92.10
8105;DHT22;4095;48.942;9.104;2022-08-03T07:02:40;24.50;92.10
8105;DHT22;4095;48.942;9.104;2022-08-03T07:05:07;24.60;92.10
8105;DHT22;4095;48.942;9.104;2022-08-03T07:07:33;24.70;92.00
8105;DHT22;4095;48.942;9.104;2022-08-03T07:09:58;24.90;91.80
8105;DHT22;4095;48.942;9.104;2022-08-03T07:12:25;25.00;91.80
8105;DHT22;4095;48.942;9.104;2022-08-03T07:14:51;25.10;91.70
8105;DHT22;4095;48.942;9.104;2022-08-03T07:17:17;25.20;91.40
8105;DHT22;4095;48.942;9.104;2022-08-03T07:19:43;25.30;91.40
8105;DHT22;4095;48.942;9.104;2022-08-03T07:22:08;25.40;91.20
8105;DHT22;4095;48.942;9.104;2022-08-03T07:24:35;25.50;91.10
8105;DHT22;4095;48.942;9.104;2022-08-03T07:27:01;25.60;91.20
8105;DHT22;4095;48.942;9.104;2022-08-03T07:29:27;25.70;91.10
8105;DHT22;4095;48.942;9.104;2022-08-03T07:31:53;25.80;90.80
8105;DHT22;4095;48.942;9.104;2022-08-03T07:34:18;25.90;90.70
8105;DHT22;4095;48.942;9.104;2022-08-03T07:36:44;26.10;90.60
8105;DHT22;4095;48.942;9.104;2022-08-03T07:39:09;26.20;90.70
8105;DHT22;4095;48.942;9.104;2022-08-03T07:41:35;26.30;90.40
8105;DHT22;4095;48.942;9.104;2022-08-03T07:44:01;26.50;90.40
8105;DHT22;4095;48.942;9.104;2022-08-03T07:46:27;26.60;90.10
8105;DHT22;4095;48.942;9.104;2022-08-03T07:48:53;26.70;89.80
8105;DHT22;4095;48.942;9.104;2022-08-03T07:51:18;26.80;89.60
8105;DHT22;4095;48.942;9.104;2022-08-03T07:53:44;26.80;89.40
8105;DHT22;4095;48.942;9.104;2022-08-03T07:56:09;26.90;89.70
8105;DHT22;4095;48.942;9.104;2022-08-03T07:58:35;27.00;87.80
8105;DHT22;4095;48.942;9.104;2022-08-03T08:01:01;27.00;88.20
8105;DHT22;4095;48.942;9.104;2022-08-03T08:03:27;27.10;87.70
8105;DHT22;4095;48.942;9.104;2022-08-03T08:05:52;27.20;86.60
8105;DHT22;4095;48.942;9.104;2022-08-03T08:08:19;27.30;85.50
8105;DHT22;4095;48.942;9.104;2022-08-03T08:10:45;27.40;84.50
8105;DHT22;4095;48.942;9.104;2022-08-03T08:13:11;27.50;85.20
8105;DHT22;4095;48.942;9.104;2022-08-03T08:15:37;27.60;84.80
8105;DHT22;4095;48.942;9.104;2022-08-03T08:18:03;27.70;83.90
8105;DHT22;4095;48.942;9.104;2022-08-03T08:20:32;27.80;83.20
8105;DHT22;4095;48.942;9.104;2022-08-03T08:23:00;27.90;83.50
8105;DHT22;4095;48.942;9.104;2022-08-03T08:25:26;27.90;82.10
8105;DHT22;4095;48.942;9.104;2022-08-03T08:27:52;28.00;82.50
8105;DHT22;4095;48.942;9.104;2022-08-03T08:30:19;28.10;82.20
8105;DHT22;4095;48.942;9.104;2022-08-03T08:32:45;28.30;82.40
8105;DHT22;4095;48.942;9.104;2022-08-03T08:35:12;28.40;80.60
8105;DHT22;4095;48.942;9.104;2022-08-03T08:37:38;28.50;80.50
8105;DHT22;4095;48.942;9.104;2022-08-03T08:40:05;28.60;80.10
8105;DHT22;4095;48.942;9.104;2022-08-03T08:42:31;28.70;78.30
8105;DHT22;4095;48.942;9.104;2022-08-03T08:44:59;28.70;79.40
8105;DHT22;4095;48.942;9.104;2022-08-03T08:47:25;28.80;79.60
8105;DHT22;4095;48.942;9.104;2022-08-03T08:49:54;28.90;78.50
8105;DHT22;4095;48.942;9.104;2022-08-03T08:52:29;29.00;76.90
8105;DHT22;4095;48.942;9.104;2022-08-03T08:54:59;29.10;76.70
8105;DHT22;4095;48.942;9.104;2022-08-03T08:57:37;29.20;76.20
8105;DHT22;4095;48.942;9.104;2022-08-03T09:00:08;29.30;76.60
8105;DHT22;4095;48.942;9.104;2022-08-03T09:02:38;29.40;76.50
8105;DHT22;4095;48.942;9.104;2022-08-03T09:05:12;29.60;76.70
8105;DHT22;4095;48.942;9.104;2022-08-03T09:07:39;29.60;73.70
8105;DHT22;4095;48.942;9.104;2022-08-03T09:10:06;29.70;74.10
8105;DHT22;4095;48.942;9.104;2022-08-03T09:12:43;29.70;71.70
8105;DHT22;4095;48.942;9.104;2022-08-03T09:15:24;29.80;72.40
8105;DHT22;4095;48.942;9.104;2022-08-03T09:17:52;30.00;73.40
8105;DHT22;4095;48.942;9.104;2022-08-03T09:20:20;30.00;72.10
8105;DHT22;4095;48.942;9.104;2022-08-03T09:22:53;30.10;71.80
8105;DHT22;4095;48.942;9.104;2022-08-03T09:25:26;30.20;70.70
8105;DHT22;4095;48.942;9.104;2022-08-03T09:27:52;30.30;69.60
8105;DHT22;4095;48.942;9.104;2022-08-03T09:30:18;30.30;71.60
8105;DHT22;4095;48.942;9.104;2022-08-03T09:32:44;30.30;70.00
8105;DHT22;4095;48.942;9.104;2022-08-03T09:35:13;30.50;70.00
8105;DHT22;4095;48.942;9.104;2022-08-03T09:37:39;30.50;69.10
8105;DHT22;4095;48.942;9.104;2022-08-03T09:40:05;30.60;69.10
8105;DHT22;4095;48.942;9.104;2022-08-03T09:42:31;30.70;70.20
8105;DHT22;4095;48.942;9.104;2022-08-03T09:45:03;30.70;69.30
8105;DHT22;4095;48.942;9.104;2022-08-03T09:47:33;30.90;68.20
8105;DHT22;4095;48.942;9.104;2022-08-03T09:50:06;31.00;66.90
8105;DHT22;4095;48.942;9.104;2022-08-03T09:52:35;31.10;66.20
8105;DHT22;4095;48.942;9.104;2022-08-03T09:55:07;31.30;63.70
8105;DHT22;4095;48.942;9.104;2022-08-03T09:57:34;31.30;64.80
8105;DHT22;4095;48.942;9.104;2022-08-03T10:00:26;31.40;65.60
8105;DHT22;4095;48.942;9.104;2022-08-03T10:03:03;31.50;65.20
8105;DHT22;4095;48.942;9.104;2022-08-03T10:05:31;31.60;65.20
8105;DHT22;4095;48.942;9.104;2022-08-03T10:07:57;31.70;65.70
8105;DHT22;4095;48.942;9.104;2022-08-03T10:10:22;31.70;66.00
8105;DHT22;4095;48.942;9.104;2022-08-03T10:12:49;31.80;65.00
8105;DHT22;4095;48.942;9.104;2022-08-03T10:15:15;31.90;65.20
8105;DHT22;4095;48.942;9.104;2022-08-03T10:17:41;31.90;63.70
8105;DHT22;4095;48.942;9.104;2022-08-03T10:20:08;32.00;64.30
8105;DHT22;4095;48.942;9.104;2022-08-03T10:22:35;32.00;64.70
8105;DHT22;4095;48.942;9.104;2022-08-03T10:25:09;32.10;64.10
8105;DHT22;4095;48.942;9.104;2022-08-03T10:27:40;32.30;64.20
8105;DHT22;4095;48.942;9.104;2022-08-03T10:30:09;32.20;63.50
8105;DHT22;4095;48.942;9.104;2022-08-03T10:32:40;32.30;64.60
8105;DHT22;4095;48.942;9.104;2022-08-03T10:35:11;32.50;65.30
8105;DHT22;4095;48.942;9.104;2022-08-03T10:37:44;32.50;64.90
8105;DHT22;4095;48.942;9.104;2022-08-03T10:40:14;32.60;63.00
8105;DHT22;4095;48.942;9.104;2022-08-03T10:42:41;32.70;63.70
8105;DHT22;4095;48.942;9.104;2022-08-03T10:45:19;32.60;63.00
8105;DHT22;4095;48.942;9.104;2022-08-03T10:47:50;32.70;63.90
8105;DHT22;4095;48.942;9.104;2022-08-03T10:50:16;32.80;63.70
8105;DHT22;4095;48.942;9.104;2022-08-03T10:52:59;32.90;64.00
8105;DHT22;4095;48.942;9.104;2022-08-03T10:55:40;33.00;62.50
8105;DHT22;4095;48.942;9.104;2022-08-03T11:01:04;33.00;63.70
8105;DHT22;4095;48.942;9.104;2022-08-03T11:03:30;33.10;64.10
8105;DHT22;4095;48.942;9.104;2022-08-03T11:06:18;33.10;62.50
8105;DHT22;4095;48.942;9.104;2022-08-03T11:08:48;33.10;62.60
8105;DHT22;4095;48.942;9.104;2022-08-03T11:14:01;33.20;62.50
8105;DHT22;4095;48.942;9.104;2022-08-03T11:16:31;33.20;62.90
8105;DHT22;4095;48.942;9.104;2022-08-03T11:19:02;33.30;63.30
8105;DHT22;4095;48.942;9.104;2022-08-03T11:35:26;33.80;61.70
8105;DHT22;4095;48.942;9.104;2022-08-03T11:46:05;33.90;61.40
8105;DHT22;4095;48.942;9.104;2022-08-03T11:48:39;33.90;59.60
8105;DHT22;4095;48.942;9.104;2022-08-03T11:51:27;33.90;59.00
8105;DHT22;4095;48.942;9.104;2022-08-03T11:53:58;33.90;60.20
8105;DHT22;4095;48.942;9.104;2022-08-03T11:56:24;33.90;60.00
8105;DHT22;4095;48.942;9.104;2022-08-03T11:58:52;33.90;60.10
8105;DHT22;4095;48.942;9.104;2022-08-03T12:01:19;33.90;59.60
8105;DHT22;4095;48.942;9.104;2022-08-03T12:03:45;33.90;59.60
8105;DHT22;4095;48.942;9.104;2022-08-03T12:06:13;33.90;58.90
8105;DHT22;4095;48.942;9.104;2022-08-03T12:08:40;33.90;60.30
8105;DHT22;4095;48.942;9.104;2022-08-03T12:11:07;34.00;60.00
8105;DHT22;4095;48.942;9.104;2022-08-03T12:13:44;34.00;59.40
8105;DHT22;4095;48.942;9.104;2022-08-03T12:16:21;34.00;58.90
8105;DHT22;4095;48.942;9.104;2022-08-03T12:19:01;33.90;59.20
8105;DHT22;4095;48.942;9.104;2022-08-03T12:21:28;34.00;59.60
8105;DHT22;4095;48.942;9.104;2022-08-03T12:23:58;33.90;58.90
8105;DHT22;4095;48.942;9.104;2022-08-03T12:26:25;34.00;60.10
8105;DHT22;4095;48.942;9.104;2022-08-03T12:28:51;34.00;60.90
8105;DHT22;4095;48.942;9.104;2022-08-03T12:31:17;34.10;58.80
8105;DHT22;4095;48.942;9.104;2022-08-03T12:34:03;34.20;58.60
8105;DHT22;4095;48.942;9.104;2022-08-03T12:36:31;34.20;60.10
8105;DHT22;4095;48.942;9.104;2022-08-03T12:39:00;34.20;59.60
8105;DHT22;4095;48.942;9.104;2022-08-03T12:41:28;34.20;59.00
8105;DHT22;4095;48.942;9.104;2022-08-03T12:43:54;34.20;58.70
8105;DHT22;4095;48.942;9.104;2022-08-03T12:46:19;34.20;59.80
8105;DHT22;4095;48.942;9.104;2022-08-03T12:49:01;34.20;59.00
8105;DHT22;4095;48.942;9.104;2022-08-03T12:51:28;34.10;59.00
8105;DHT22;4095;48.942;9.104;2022-08-03T12:53:55;34.00;58.30
8105;DHT22;4095;48.942;9.104;2022-08-03T12:56:21;33.90;58.90
8105;DHT22;4095;48.942;9.104;2022-08-03T12:58:47;34.00;59.60
8105;DHT22;4095;48.942;9.104;2022-08-03T13:01:16;34.00;58.10
8105;DHT22;4095;48.942;9.104;2022-08-03T13:03:46;33.90;58.80
8105;DHT22;4095;48.942;9.104;2022-08-03T13:06:23;33.90;58.80
8105;DHT22;4095;48.942;9.104;2022-08-03T13:09:01;33.80;59.50
8105;DHT22;4095;48.942;9.104;2022-08-03T13:11:27;33.80;59.40
8105;DHT22;4095;48.942;9.104;2022-08-03T13:13:53;33.70;58.60
8105;DHT22;4095;48.942;9.104;2022-08-03T13:16:23;33.70;60.20
8105;DHT22;4095;48.942;9.104;2022-08-03T13:18:50;33.60;59.30
8105;DHT22;4095;48.942;9.104;2022-08-03T13:21:18;33.70;58.70
8105;DHT22;4095;48.942;9.104;2022-08-03T13:23:44;33.60;58.60
8105;DHT22;4095;48.942;9.104;2022-08-03T13:26:11;33.60;57.40
8105;DHT22;4095;48.942;9.104;2022-08-03T13:28:37;33.50;57.60
8105;DHT22;4095;48.942;9.104;2022-08-03T13:31:03;33.50;57.90
8105;DHT22;4095;48.942;9.104;2022-08-03T13:33:29;33.40;58.80
8105;DHT22;4095;48.942;9.104;2022-08-03T13:35:55;33.30;58.70
8105;DHT22;4095;48.942;9.104;2022-08-03T13:38:20;33.30;57.90
8105;DHT22;4095;48.942;9.104;2022-08-03T13:40:46;33.30;59.30
8105;DHT22;4095;48.942;9.104;2022-08-03T13:43:11;33.20;58.60
8105;DHT22;4095;48.942;9.104;2022-08-03T13:45:37;33.20;58.80
8105;DHT22;4095;48.942;9.104;2022-08-03T13:48:03;33.20;58.50
8105;DHT22;4095;48.942;9.104;2022-08-03T13:50:29;33.20;60.30
8105;DHT22;4095;48.942;9.104;2022-08-03T13:52:56;33.20;59.10
8105;DHT22;4095;48.942;9.104;2022-08-03T13:55:22;33.10;59.20
8105;DHT22;4095;48.942;9.104;2022-08-03T13:57:47;33.10;59.70
8105;DHT22;4095;48.942;9.104;2022-08-03T14:00:14;33.00;59.40
8105;DHT22;4095;48.942;9.104;2022-08-03T14:02:41;33.00;59.10
8105;DHT22;4095;48.942;9.104;2022-08-03T14:05:06;33.00;58.90
8105;DHT22;4095;48.942;9.104;2022-08-03T14:07:32;33.00;58.70
8105;DHT22;4095;48.942;9.104;2022-08-03T14:09:58;33.00;59.40
8105;DHT22;4095;48.942;9.104;2022-08-03T14:12:23;33.00;59.20
8105;DHT22;4095;48.942;9.104;2022-08-03T14:14:49;33.00;59.60
8105;DHT22;4095;48.942;9.104;2022-08-03T14:17:15;32.90;59.20
8105;DHT22;4095;48.942;9.104;2022-08-03T14:19:40;32.90;59.90
8105;DHT22;4095;48.942;9.104;2022-08-03T14:22:06;32.90;59.50
8105;DHT22;4095;48.942;9.104;2022-08-03T14:24:31;32.90;59.80
8105;DHT22;4095;48.942;9.104;2022-08-03T14:26:57;32.80;60.30
8105;DHT22;4095;48.942;9.104;2022-08-03T14:29:22;32.80;58.80
8105;DHT22;4095;48.942;9.104;2022-08-03T14:31:48;32.80;58.80
8105;DHT22;4095;48.942;9.104;2022-08-03T14:34:14;32.80;59.50
8105;DHT22;4095;48.942;9.104;2022-08-03T14:36:39;32.80;59.80
8105;DHT22;4095;48.942;9.104;2022-08-03T14:39:06;32.80;58.40
8105;DHT22;4095;48.942;9.104;2022-08-03T14:41:32;32.90;59.10
8105;DHT22;4095;48.942;9.104;2022-08-03T14:43:57;32.80;58.60
8105;DHT22;4095;48.942;9.104;2022-08-03T14:46:23;32.80;58.80
8105;DHT22;4095;48.942;9.104;2022-08-03T14:48:49;32.80;58.70
8105;DHT22;4095;48.942;9.104;2022-08-03T14:51:14;32.80;58.80
8105;DHT22;4095;48.942;9.104;2022-08-03T14:53:40;32.80;58.80
8105;DHT22;4095;48.942;9.104;2022-08-03T14:56:06;32.80;59.70
8105;DHT22;4095;48.942;9.104;2022-08-03T14:58:31;32.80;59.50
8105;DHT22;4095;48.942;9.104;2022-08-03T15:00:57;32.80;59.00
8105;DHT22;4095;48.942;9.104;2022-08-03T15:03:24;32.80;58.60
8105;DHT22;4095;48.942;9.104;2022-08-03T15:05:54;32.80;58.40
8105;DHT22;4095;48.942;9.104;2022-08-03T15:08:20;32.80;59.10
8105;DHT22;4095;48.942;9.104;2022-08-03T15:10:47;32.70;58.70
8105;DHT22;4095;48.942;9.104;2022-08-03T15:13:13;32.70;59.00
8105;DHT22;4095;48.942;9.104;2022-08-03T15:15:39;32.70;58.80
8105;DHT22;4095;48.942;9.104;2022-08-03T15:18:05;32.70;58.50
8105;DHT22;4095;48.942;9.104;2022-08-03T15:20:30;32.70;59.20
8105;DHT22;4095;48.942;9.104;2022-08-03T15:22:56;32.70;58.80
8105;DHT22;4095;48.942;9.104;2022-08-03T15:25:22;32.70;58.70
8105;DHT22;4095;48.942;9.104;2022-08-03T15:27:47;32.70;58.10
8105;DHT22;4095;48.942;9.104;2022-08-03T15:30:13;32.70;58.50
8105;DHT22;4095;48.942;9.104;2022-08-03T15:32:39;32.70;59.30
8105;DHT22;4095;48.942;9.104;2022-08-03T15:35:05;32.60;58.80
8105;DHT22;4095;48.942;9.104;2022-08-03T15:37:30;32.60;59.10
8105;DHT22;4095;48.942;9.104;2022-08-03T15:39:56;32.50;58.00
8105;DHT22;4095;48.942;9.104;2022-08-03T15:42:21;32.50;58.90
8105;DHT22;4095;48.942;9.104;2022-08-03T15:44:47;32.60;57.60
8105;DHT22;4095;48.942;9.104;2022-08-03T15:47:13;32.60;58.50
8105;DHT22;4095;48.942;9.104;2022-08-03T15:49:38;32.50;58.80
8105;DHT22;4095;48.942;9.104;2022-08-03T15:52:04;32.60;58.20
8105;DHT22;4095;48.942;9.104;2022-08-03T15:54:30;32.60;58.00
8105;DHT22;4095;48.942;9.104;2022-08-03T15:56:55;32.60;57.60
8105;DHT22;4095;48.942;9.104;2022-08-03T15:59:21;32.60;58.00
8105;DHT22;4095;48.942;9.104;2022-08-03T16:01:47;32.70;58.20
8105;DHT22;4095;48.942;9.104;2022-08-03T16:04:12;32.70;58.70
8105;DHT22;4095;48.942;9.104;2022-08-03T16:06:38;32.60;58.40
8105;DHT22;4095;48.942;9.104;2022-08-03T16:09:06;32.70;58.70
8105;DHT22;4095;48.942;9.104;2022-08-03T16:11:32;32.60;58.40
8105;DHT22;4095;48.942;9.104;2022-08-03T16:13:58;32.60;58.30
8105;DHT22;4095;48.942;9.104;2022-08-03T16:16:23;32.60;58.10
8105;DHT22;4095;48.942;9.104;2022-08-03T16:18:49;32.50;58.10
8105;DHT22;4095;48.942;9.104;2022-08-03T16:21:15;32.60;58.30
8105;DHT22;4095;48.942;9.104;2022-08-03T16:23:41;32.50;57.80
8105;DHT22;4095;48.942;9.104;2022-08-03T16:26:07;32.60;57.60
8105;DHT22;4095;48.942;9.104;2022-08-03T16:28:32;32.60;58.10
8105;DHT22;4095;48.942;9.104;2022-08-03T16:31:02;32.50;58.20
8105;DHT22;4095;48.942;9.104;2022-08-03T16:33:28;32.50;58.30
8105;DHT22;4095;48.942;9.104;2022-08-03T16:35:54;32.60;58.30
8105;DHT22;4095;48.942;9.104;2022-08-03T16:38:20;32.50;58.20
8105;DHT22;4095;48.942;9.104;2022-08-03T16:40:47;32.50;58.70
8105;DHT22;4095;48.942;9.104;2022-08-03T16:43:16;32.50;59.00
8105;DHT22;4095;48.942;9.104;2022-08-03T16:45:42;32.50;58.20
8105;DHT22;4095;48.942;9.104;2022-08-03T16:48:07;32.50;58.80
8105;DHT22;4095;48.942;9.104;2022-08-03T16:50:34;32.40;59.30